Time;durP1;ratioP1;P1;durP2;ratioP2;P2;SDS_P1;SDS_P2;PMS_P1;PMS_P2;Temp;Humidity;BMP_temperature;BMP_pressure;BME280_temperature;BME280_humidity;BME280_pressure;Samples;Min_cycle;Max_cycle;Signal;HPM_P1;HPM_P2
2022/12/11 00:04:56;;;;;;;30.83;16.87;;;;;;;-145.68;100.00;63218.00;10411255;28;20536;-77
2022/12/11 00:09:56;;;;;;;32.40;17.03;;;;;;;-145.68;100.00;63218.00;10393182;28;20586;-77
2022/12/11 00:14:57;;;;;;;32.30;16.37;;;;;;;-145.68;100.00;63218.00;10410537;28;20197;-77
2022/12/11 00:19:57;;;;;;;37.40;16.83;;;;;;;-145.68;100.00;63218.00;10410491;28;20188;-77
2022/12/11 00:24:58;;;;;;;33.77;17.13;;;;;;;-145.68;100.00;63218.00;10410286;28;20224;-77
2022/12/11 00:29:58;;;;;;;35.13;17.60;;;;;;;-145.68;100.00;63218.00;10410218;28;20228;-77
2022/12/11 00:34:58;;;;;;;46.87;20.13;;;;;;;-145.68;100.00;63218.00;10410257;28;20556;-77
2022/12/11 00:39:59;;;;;;;44.90;21.30;;;;;;;-145.68;100.00;63218.00;10391569;28;20721;-77
2022/12/11 00:44:59;;;;;;;46.43;21.33;;;;;;;-145.68;100.00;63218.00;10411967;28;20562;-76
2022/12/11 00:50:00;;;;;;;47.03;20.83;;;;;;;-145.68;100.00;63218.00;10417451;28;20866;-77
2022/12/11 00:55:00;;;;;;;44.03;20.40;;;;;;;-145.68;100.00;63218.00;10432650;28;20192;-77
2022/12/11 01:00:00;;;;;;;41.13;19.27;;;;;;;-145.68;100.00;63218.00;10433464;28;20188;-77
2022/12/11 01:05:01;;;;;;;43.13;19.20;;;;;;;-145.68;100.00;63218.00;10432958;28;20666;-78
2022/12/11 01:15:23;;;;;;;36.00;17.67;;;;;;;-145.68;100.00;63218.00;10458691;28;20293;-76
2022/12/11 01:20:26;;;;;;;38.77;17.03;;;;;;;-145.68;100.00;63218.00;10424301;28;20193;-77
2022/12/11 01:25:27;;;;;;;35.70;18.00;;;;;;;-145.68;100.00;63218.00;10419501;28;20290;-78
2022/12/11 01:30:28;;;;;;;37.93;18.67;;;;;;;-145.68;100.00;63218.00;10426702;28;20231;-78
2022/12/11 01:35:28;;;;;;;37.73;19.67;;;;;;;-145.68;100.00;63218.00;10435298;28;20199;-76
2022/12/11 01:40:29;;;;;;;40.10;19.37;;;;;;;-145.68;100.00;63218.00;10419853;28;20689;-76
2022/12/11 01:45:39;;;;;;;38.00;19.43;;;;;;;-145.68;100.00;63218.00;10415488;28;20266;-77
2022/12/11 01:50:46;;;;;;;40.07;20.13;;;;;;;-145.68;100.00;63218.00;10415732;28;20266;-77
2022/12/11 01:55:50;;;;;;;37.40;19.03;;;;;;;-145.68;100.00;63218.00;10397907;28;20211;-78
2022/12/11 02:00:51;;;;;;;39.73;18.93;;;;;;;-145.68;100.00;63218.00;10396494;28;20188;-77
2022/12/11 02:05:52;;;;;;;41.33;19.00;;;;;;;-145.68;100.00;63218.00;10397410;28;20192;-77
2022/12/11 02:11:05;;;;;;;36.67;18.20;;;;;;;-145.68;100.00;63218.00;10414626;28;20221;-77
2022/12/11 02:16:16;;;;;;;40.03;19.43;;;;;;;-145.68;100.00;63218.00;10380625;28;20550;-77
2022/12/11 02:21:27;;;;;;;39.70;19.17;;;;;;;-145.68;100.00;63218.00;10396555;28;20195;-77
2022/12/11 02:26:46;;;;;;;34.53;18.27;;;;;;;-145.68;100.00;63218.00;10396623;28;20818;-78
2022/12/11 02:31:53;;;;;;;38.00;18.63;;;;;;;-145.68;100.00;63218.00;10413774;28;20661;-78
2022/12/11 02:36:58;;;;;;;38.53;20.47;;;;;;;-145.68;100.00;63218.00;10396329;28;20205;-77
2022/12/11 02:41:58;;;;;;;39.10;19.37;;;;;;;-145.68;100.00;63218.00;10395348;28;20196;-77
2022/12/11 02:47:00;;;;;;;46.30;20.53;;;;;;;-145.68;100.00;63218.00;10395809;28;20588;-77
2022/12/11 02:52:02;;;;;;;41.07;20.07;;;;;;;-145.68;100.00;63218.00;10413326;28;20207;-78
2022/12/11 02:57:08;;;;;;;39.10;20.13;;;;;;;-145.68;100.00;63218.00;10413177;28;20220;-79
2022/12/11 03:02:10;;;;;;;44.07;20.57;;;;;;;-145.68;100.00;63218.00;10378478;28;20665;-77
2022/12/11 03:07:22;;;;;;;38.43;18.63;;;;;;;-145.68;100.00;63218.00;10412494;28;20225;-77
2022/12/11 03:12:28;;;;;;;34.67;18.33;;;;;;;-145.68;100.00;63218.00;10394479;28;20347;-78
2022/12/11 03:17:43;;;;;;;37.10;18.50;;;;;;;-145.68;100.00;63218.00;10394545;28;20272;-77
2022/12/11 03:22:57;;;;;;;39.87;19.03;;;;;;;-145.68;100.00;63218.00;10411157;28;20662;-78
2022/12/11 03:28:05;;;;;;;41.90;19.37;;;;;;;-145.68;100.00;63218.00;10411350;28;20235;-76
2022/12/11 03:33:10;;;;;;;44.70;19.33;;;;;;;-145.68;100.00;63218.00;10393617;28;20250;-77
2022/12/11 03:38:15;;;;;;;42.60;20.47;;;;;;;-145.68;100.00;63218.00;10376833;28;20254;-77
2022/12/11 03:43:16;;;;;;;40.60;18.83;;;;;;;-145.68;100.00;63218.00;10393669;28;20185;-77
2022/12/11 03:48:17;;;;;;;37.97;17.77;;;;;;;-145.68;100.00;63218.00;10392660;28;20295;-78
2022/12/11 03:53:18;;;;;;;38.07;18.10;;;;;;;-145.68;100.00;63218.00;10393140;28;20188;-77
2022/12/11 03:58:18;;;;;;;41.40;19.57;;;;;;;-145.68;100.00;63218.00;10391364;28;20192;-78
2022/12/11 04:03:19;;;;;;;41.23;19.57;;;;;;;-145.68;100.00;63218.00;10420299;28;20212;-78
2022/12/11 04:08:20;;;;;;;44.83;19.30;;;;;;;-145.68;100.00;63218.00;10448333;28;20215;-78
2022/12/11 04:13:20;;;;;;;44.37;19.73;;;;;;;-145.68;100.00;63218.00;10446107;28;20188;-78
2022/12/11 04:28:59;;;;;;;38.10;16.03;;;;;;;-145.68;100.00;63218.00;10446963;28;20585;-78
2022/12/11 04:33:59;;;;;;;46.30;17.30;;;;;;;-145.68;100.00;63218.00;10447188;28;20199;-78
2022/12/11 04:38:59;;;;;;;39.80;18.93;;;;;;;-145.68;100.00;63218.00;10428564;28;20215;-78
2022/12/11 04:44:00;;;;;;;43.43;18.13;;;;;;;-145.68;100.00;63218.00;10446967;28;20274;-78
2022/12/11 04:49:00;;;;;;;42.13;16.50;;;;;;;-145.68;100.00;63218.00;10445748;28;20227;-78
2022/12/11 04:54:00;;;;;;;37.73;16.60;;;;;;;-145.68;100.00;63218.00;10446755;28;20184;-78
2022/12/11 04:59:01;;;;;;;35.67;15.73;;;;;;;-145.68;100.00;63218.00;10445142;28;20195;-78
2022/12/11 05:04:01;;;;;;;38.97;16.23;;;;;;;-145.68;100.00;63218.00;10429719;28;20511;-78
2022/12/11 05:09:02;;;;;;;32.80;14.67;;;;;;;-145.68;100.00;63218.00;10430880;28;20223;-78
2022/12/11 05:14:03;;;;;;;32.17;15.27;;;;;;;-145.68;100.00;63218.00;10429393;28;20664;-78
2022/12/11 05:19:03;;;;;;;36.97;17.13;;;;;;;-145.68;100.00;63218.00;10449692;28;20188;-76
2022/12/11 05:24:05;;;;;;;36.00;17.10;;;;;;;-145.68;100.00;63218.00;10449266;28;20241;-78
2022/12/11 05:29:05;;;;;;;38.10;15.97;;;;;;;-145.68;100.00;63218.00;10431690;28;20248;-78
2022/12/11 05:34:06;;;;;;;37.37;16.53;;;;;;;-145.68;100.00;63218.00;10449020;28;20778;-78
2022/12/11 05:39:06;;;;;;;37.07;16.20;;;;;;;-145.68;100.00;63218.00;10449221;28;20204;-78
2022/12/11 05:44:10;;;;;;;38.40;16.47;;;;;;;-145.68;100.00;63218.00;10448947;28;20199;-78
2022/12/11 05:49:11;;;;;;;36.13;16.17;;;;;;;-145.68;100.00;63218.00;10430984;28;20216;-78
2022/12/11 05:54:12;;;;;;;39.53;16.37;;;;;;;-145.68;100.00;63218.00;10451481;28;20202;-78
2022/12/11 05:59:12;;;;;;;36.40;16.47;;;;;;;-145.68;100.00;63218.00;10456279;28;20195;-78
2022/12/11 06:04:12;;;;;;;33.40;15.77;;;;;;;-145.68;100.00;63218.00;10456959;28;20675;-78
2022/12/11 06:09:14;;;;;;;37.60;15.23;;;;;;;-145.68;100.00;63218.00;10438422;28;20655;-78
2022/12/11 06:14:15;;;;;;;33.73;15.40;;;;;;;-145.68;100.00;63218.00;10456476;28;20211;-78
2022/12/11 06:19:17;;;;;;;37.63;15.73;;;;;;;-145.68;100.00;63218.00;10438420;28;20230;-78
2022/12/11 06:24:17;;;;;;;40.20;15.97;;;;;;;-145.68;100.00;63218.00;10455665;28;20318;-78
2022/12/11 06:29:17;;;;;;;38.77;16.13;;;;;;;-145.68;100.00;63218.00;10455738;28;20222;-78
2022/12/11 06:34:18;;;;;;;37.33;16.60;;;;;;;-145.68;100.00;63218.00;10437588;28;20537;-78
2022/12/11 06:39:19;;;;;;;35.27;15.13;;;;;;;-145.68;100.00;63218.00;10454529;28;20235;-78
2022/12/11 06:44:19;;;;;;;29.10;13.10;;;;;;;-145.68;100.00;63218.00;10454740;28;20246;-78
2022/12/11 06:49:20;;;;;;;35.30;14.70;;;;;;;-145.68;100.00;63218.00;10454040;28;20227;-77
2022/12/11 06:54:24;;;;;;;33.03;14.60;;;;;;;-145.68;100.00;63218.00;10454441;28;20277;-78
2022/12/11 06:59:25;;;;;;;34.60;14.60;;;;;;;-145.68;100.00;63218.00;10453248;28;20180;-78
2022/12/11 07:04:26;;;;;;;37.77;17.73;;;;;;;-145.68;100.00;63218.00;10435404;28;20633;-78
2022/12/11 07:09:26;;;;;;;44.40;18.60;;;;;;;-145.68;100.00;63218.00;10453985;28;20620;-78
2022/12/11 07:14:27;;;;;;;39.43;18.33;;;;;;;-145.68;100.00;63218.00;10453920;28;20198;-78
2022/12/11 07:19:27;;;;;;;35.53;15.43;;;;;;;-145.68;100.00;63218.00;10435806;28;20570;-78
2022/12/11 07:24:28;;;;;;;34.20;15.90;;;;;;;-145.68;100.00;63218.00;10453672;28;20243;-78
2022/12/11 07:29:28;;;;;;;31.47;14.03;;;;;;;-145.68;100.00;63218.00;10453628;28;20618;-78
2022/12/11 07:34:28;;;;;;;31.20;13.97;;;;;;;-145.68;100.00;63218.00;10453032;28;20188;-78
2022/12/11 07:39:29;;;;;;;26.60;13.80;;;;;;;-145.68;100.00;63218.00;10453178;28;20242;-78
2022/12/11 07:44:29;;;;;;;29.93;13.67;;;;;;;-145.68;100.00;63218.00;10452890;28;20184;-78
2022/12/11 07:49:29;;;;;;;29.13;12.80;;;;;;;-145.68;100.00;63218.00;10436128;28;20212;-78
2022/12/11 07:54:30;;;;;;;35.50;15.03;;;;;;;-145.68;100.00;63218.00;10440179;28;20192;-77
2022/12/11 07:59:30;;;;;;;28.63;12.33;;;;;;;-145.68;100.00;63218.00;10452414;28;20192;-78
2022/12/11 08:04:31;;;;;;;22.23;10.77;;;;;;;-145.68;100.00;63218.00;10452539;28;20582;-75
2022/12/11 08:09:31;;;;;;;24.10;11.20;;;;;;;-145.68;100.00;63218.00;10451668;28;20222;-77
2022/12/11 08:14:32;;;;;;;19.57;10.30;;;;;;;-145.68;100.00;63218.00;10451966;28;20207;-77
2022/12/11 08:19:32;;;;;;;20.97;11.53;;;;;;;-145.68;100.00;63218.00;10433413;28;20207;-77
2022/12/11 08:24:33;;;;;;;21.70;12.00;;;;;;;-145.68;100.00;63218.00;10446041;28;20339;-77
2022/12/11 08:29:33;;;;;;;19.13;10.87;;;;;;;-145.68;100.00;63218.00;10386055;28;20213;-75
2022/12/11 08:34:33;;;;;;;19.97;9.70;;;;;;;-145.68;100.00;63218.00;10387861;28;20187;-75
2022/12/11 08:39:34;;;;;;;19.53;10.50;;;;;;;-145.68;100.00;63218.00;10402934;28;20270;-76
2022/12/11 08:44:34;;;;;;;25.20;12.37;;;;;;;-145.68;100.00;63218.00;10391824;28;20673;-75
2022/12/11 08:49:36;;;;;;;19.33;10.30;;;;;;;-145.68;100.00;63218.00;10409604;28;20228;-76
2022/12/11 08:54:37;;;;;;;23.03;12.10;;;;;;;-145.68;100.00;63218.00;10409603;28;20193;-76
2022/12/11 08:59:37;;;;;;;16.80;10.00;;;;;;;-145.68;100.00;63218.00;10409177;28;20657;-74
2022/12/11 09:04:37;;;;;;;16.70;9.20;;;;;;;-145.68;100.00;63218.00;10380135;28;20590;-74
2022/12/11 09:09:38;;;;;;;17.27;8.53;;;;;;;-145.68;100.00;63218.00;10370980;28;20213;-73
2022/12/11 09:14:38;;;;;;;17.43;9.10;;;;;;;-145.68;100.00;63218.00;10367990;28;20193;-76
2022/12/11 09:19:38;;;;;;;13.23;8.27;;;;;;;-145.68;100.00;63218.00;10368101;28;20189;-76
2022/12/11 09:24:39;;;;;;;20.17;10.10;;;;;;;-145.68;100.00;63218.00;10374558;28;20235;-76
2022/12/11 09:29:39;;;;;;;14.50;9.23;;;;;;;-145.68;100.00;63218.00;10411669;28;20220;-76
2022/12/11 09:34:40;;;;;;;19.97;9.27;;;;;;;-145.68;100.00;63218.00;10417019;28;20707;-76
2022/12/11 09:39:40;;;;;;;18.33;9.47;;;;;;;-145.68;100.00;63218.00;10438076;28;20212;-77
2022/12/11 09:44:45;;;;;;;17.00;7.97;;;;;;;-145.68;100.00;63218.00;10456580;28;20195;-77
2022/12/11 09:49:48;;;;;;;17.13;8.83;;;;;;;-145.68;100.00;63218.00;10438743;28;20761;-77
2022/12/11 09:54:55;;;;;;;15.57;9.03;;;;;;;-145.68;100.00;63218.00;10438465;28;20196;-76
2022/12/11 10:00:13;;;;;;;17.10;9.67;;;;;;;-145.68;100.00;63218.00;10439270;28;20641;-76
2022/12/11 10:05:35;;;;;;;18.00;9.90;;;;;;;-145.68;100.00;63218.00;10439612;28;20626;-77
2022/12/11 10:11:08;;;;;;;19.03;10.23;;;;;;;-145.68;100.00;63218.00;10428596;28;20223;-76
2022/12/11 10:16:24;;;;;;;19.40;10.30;;;;;;;-145.68;100.00;63218.00;10404709;28;20278;-76
2022/12/11 10:21:25;;;;;;;16.67;9.67;;;;;;;-145.68;100.00;63218.00;10398297;28;20230;-76
2022/12/11 10:26:27;;;;;;;20.23;10.53;;;;;;;-145.68;100.00;63218.00;10375606;28;20260;-77
2022/12/11 10:31:39;;;;;;;19.23;9.40;;;;;;;-145.68;100.00;63218.00;10374653;28;20303;-77
2022/12/11 10:36:41;;;;;;;15.30;9.47;;;;;;;-145.68;100.00;63218.00;10372856;28;20220;-77
2022/12/11 10:41:44;;;;;;;15.80;9.70;;;;;;;-145.68;100.00;63218.00;10356166;28;20195;-77
2022/12/11 10:46:46;;;;;;;17.27;8.97;;;;;;;-145.68;100.00;63218.00;10356218;28;20651;-77
2022/12/11 10:51:46;;;;;;;18.13;9.03;;;;;;;-145.68;100.00;63218.00;10403244;28;20189;-76
2022/12/11 10:56:47;;;;;;;18.37;8.63;;;;;;;-145.68;100.00;63218.00;10372798;28;20192;-76
2022/12/11 11:01:48;;;;;;;15.60;8.50;;;;;;;-145.68;100.00;63218.00;10398905;28;20197;-77
2022/12/11 11:07:00;;;;;;;18.77;9.87;;;;;;;-145.68;100.00;63218.00;10382711;28;20258;-77
2022/12/11 11:12:01;;;;;;;16.13;9.13;;;;;;;-145.68;100.00;63218.00;10392998;28;20196;-77
2022/12/11 11:17:01;;;;;;;17.87;9.33;;;;;;;-145.68;100.00;63218.00;10392316;28;20653;-76
2022/12/11 11:22:08;;;;;;;14.67;8.93;;;;;;;-145.68;100.00;63218.00;10410554;28;20255;-77
2022/12/11 11:27:40;;;;;;;17.50;9.97;;;;;;;-145.68;100.00;63218.00;10439791;28;20236;-77
2022/12/11 11:32:41;;;;;;;16.40;9.23;;;;;;;-145.68;100.00;63218.00;10437496;28;20690;-76
2022/12/11 11:37:45;;;;;;;20.20;9.90;;;;;;;-145.68;100.00;63218.00;10436041;28;20214;-77
2022/12/11 11:42:51;;;;;;;17.93;10.10;;;;;;;-145.68;100.00;63218.00;10436530;28;20191;-76
2022/12/11 11:48:26;;;;;;;17.80;8.63;;;;;;;-145.68;100.00;63218.00;10435896;28;20224;-76
2022/12/11 11:53:36;;;;;;;16.07;8.50;;;;;;;-145.68;100.00;63218.00;10415940;28;20732;-77
2022/12/11 11:59:08;;;;;;;15.30;8.53;;;;;;;-145.68;100.00;63218.00;10453682;28;20265;-77
2022/12/11 12:04:09;;;;;;;15.53;9.00;;;;;;;-145.68;100.00;63218.00;10430466;28;20215;-78
2022/12/11 12:09:28;;;;;;;14.43;8.20;;;;;;;-145.68;100.00;63218.00;10436337;28;20714;-76
2022/12/11 12:14:50;;;;;;;18.50;9.57;;;;;;;-145.68;100.00;63218.00;10456417;28;20204;-78
2022/12/11 12:20:10;;;;;;;12.63;7.90;;;;;;;-145.68;100.00;63218.00;10459574;28;20195;-77
2022/12/11 12:25:28;;;;;;;14.27;7.90;;;;;;;-145.68;100.00;63218.00;10438975;28;20219;-76
2022/12/11 12:30:39;;;;;;;14.07;7.63;;;;;;;-145.68;100.00;63218.00;10434709;28;20223;-77
2022/12/11 12:35:50;;;;;;;13.73;7.73;;;;;;;-145.68;100.00;63218.00;10434057;28;20204;-76
2022/12/11 12:41:06;;;;;;;15.70;8.80;;;;;;;-145.68;100.00;63218.00;10434013;28;20212;-77
2022/12/11 12:46:16;;;;;;;14.33;8.33;;;;;;;-145.68;100.00;63218.00;10433445;28;20215;-77
2022/12/11 12:51:17;;;;;;;15.30;9.73;;;;;;;-145.68;100.00;63218.00;10451395;28;20574;-77
2022/12/11 12:56:18;;;;;;;16.83;9.33;;;;;;;-145.68;100.00;63218.00;10433528;28;20224;-77
2022/12/11 13:01:24;;;;;;;14.60;8.23;;;;;;;-145.68;100.00;63218.00;10433584;28;20235;-76
2022/12/11 13:06:40;;;;;;;13.17;7.67;;;;;;;-145.68;100.00;63218.00;10457515;28;20188;-76
2022/12/11 13:11:40;;;;;;;15.70;8.73;;;;;;;-145.68;100.00;63218.00;10459430;28;20297;-76
2022/12/11 13:16:43;;;;;;;13.00;7.83;;;;;;;-145.68;100.00;63218.00;10459234;28;20266;-77
2022/12/11 13:22:03;;;;;;;18.73;9.57;;;;;;;-145.68;100.00;63218.00;10441149;28;20242;-77
2022/12/11 13:27:22;;;;;;;13.73;8.57;;;;;;;-145.68;100.00;63218.00;10424075;28;20322;-79
2022/12/11 13:32:23;;;;;;;17.10;8.90;;;;;;;-145.68;100.00;63218.00;10441016;28;20203;-78
2022/12/11 13:37:31;;;;;;;15.70;8.27;;;;;;;-145.68;100.00;63218.00;10440530;28;20262;-77
2022/12/11 13:42:35;;;;;;;16.50;8.73;;;;;;;-145.68;100.00;63218.00;10440468;28;20196;-77
2022/12/11 13:47:35;;;;;;;13.80;8.00;;;;;;;-145.68;100.00;63218.00;10440748;28;20668;-76
2022/12/11 13:52:36;;;;;;;14.43;8.20;;;;;;;-145.68;100.00;63218.00;10439824;28;20290;-77
2022/12/11 13:57:44;;;;;;;14.57;8.17;;;;;;;-145.68;100.00;63218.00;10458070;28;20238;-77
2022/12/11 14:02:46;;;;;;;19.20;10.80;;;;;;;-145.68;100.00;63218.00;10457414;28;20229;-77
2022/12/11 14:07:48;;;;;;;30.73;17.53;;;;;;;-145.68;100.00;63218.00;10439339;28;20239;-76
2022/12/11 14:12:59;;;;;;;17.47;9.87;;;;;;;-145.68;100.00;63218.00;10423325;28;20248;-77
2022/12/11 14:18:00;;;;;;;26.03;14.67;;;;;;;-145.68;100.00;63218.00;10438142;28;20594;-76
2022/12/11 14:23:18;;;;;;;19.60;11.20;;;;;;;-145.68;100.00;63218.00;10438899;28;20224;-76
2022/12/11 14:28:18;;;;;;;21.27;10.53;;;;;;;-145.68;100.00;63218.00;10455887;28;20235;-76
2022/12/11 14:33:24;;;;;;;16.73;10.13;;;;;;;-145.68;100.00;63218.00;10438576;28;20187;-76
2022/12/11 14:38:35;;;;;;;15.80;9.23;;;;;;;-145.68;100.00;63218.00;10438199;28;20200;-76
2022/12/11 14:43:41;;;;;;;17.37;9.27;;;;;;;-145.68;100.00;63218.00;10438230;28;20282;-77
2022/12/11 14:48:47;;;;;;;14.97;8.53;;;;;;;-145.68;100.00;63218.00;10437266;28;20223;-76
2022/12/11 14:53:49;;;;;;;16.30;8.73;;;;;;;-145.68;100.00;63218.00;10455814;28;20269;-77
2022/12/11 14:59:18;;;;;;;15.93;9.07;;;;;;;-145.68;100.00;63218.00;10437665;28;20184;-76
2022/12/11 15:04:25;;;;;;;16.87;8.83;;;;;;;-145.68;100.00;63218.00;10455891;28;20551;-76
2022/12/11 15:09:35;;;;;;;16.40;9.13;;;;;;;-145.68;100.00;63218.00;10454890;28;20219;-76
2022/12/11 15:14:41;;;;;;;20.90;9.70;;;;;;;-145.68;100.00;63218.00;10454642;28;20299;-76
2022/12/11 15:19:49;;;;;;;19.10;9.40;;;;;;;-145.68;100.00;63218.00;10420391;28;20667;-76
2022/12/11 15:24:52;;;;;;;18.00;9.87;;;;;;;-145.68;100.00;63218.00;10436513;28;20239;-76
2022/12/11 15:30:25;;;;;;;19.30;10.20;;;;;;;-145.68;100.00;63218.00;10436706;28;20269;-77
2022/12/11 15:35:26;;;;;;;20.53;10.13;;;;;;;-145.68;100.00;63218.00;10454218;28;20194;-77
2022/12/11 15:40:28;;;;;;;130.80;62.33;;;;;;;-145.68;100.00;63218.00;10435293;28;20238;-75
2022/12/11 15:45:28;;;;;;;23.47;12.70;;;;;;;-145.68;100.00;63218.00;10452457;28;20560;-76
2022/12/11 15:50:29;;;;;;;22.67;11.53;;;;;;;-145.68;100.00;63218.00;10452547;28;20297;-76
2022/12/11 15:55:33;;;;;;;27.67;14.60;;;;;;;-145.68;100.00;63218.00;10450150;28;21129;-76
2022/12/11 16:00:34;;;;;;;27.97;14.77;;;;;;;-145.68;100.00;63218.00;10451187;28;20191;-77
2022/12/11 16:05:34;;;;;;;136.43;57.10;;;;;;;-145.68;100.00;63218.00;10451901;28;20195;-77
2022/12/11 16:10:35;;;;;;;35.90;17.17;;;;;;;-145.68;100.00;63218.00;10451679;28;20219;-77
2022/12/11 16:15:40;;;;;;;18.47;10.53;;;;;;;-145.68;100.00;63218.00;10445640;28;20213;-77
2022/12/11 16:20:41;;;;;;;19.53;10.47;;;;;;;-145.68;100.00;63218.00;10438715;28;20194;-77
2022/12/11 16:25:44;;;;;;;31.83;16.20;;;;;;;-145.68;100.00;63218.00;10433085;28;20264;-77
2022/12/11 16:30:44;;;;;;;23.77;13.03;;;;;;;-145.68;100.00;63218.00;10392517;28;20762;-77
2022/12/11 16:35:44;;;;;;;34.93;16.90;;;;;;;-145.68;100.00;63218.00;10381485;28;20243;-77
2022/12/11 16:40:45;;;;;;;21.67;11.83;;;;;;;-145.68;100.00;63218.00;10367586;28;20680;-77
2022/12/11 16:45:45;;;;;;;25.90;13.63;;;;;;;-145.68;100.00;63218.00;10381858;28;20235;-77
2022/12/11 16:50:46;;;;;;;19.83;11.33;;;;;;;-145.68;100.00;63218.00;10403622;28;20226;-76
2022/12/11 16:55:46;;;;;;;20.63;10.83;;;;;;;-145.68;100.00;63218.00;10407581;28;20644;-76
2022/12/11 17:00:46;;;;;;;34.87;17.30;;;;;;;-145.68;100.00;63218.00;10406185;28;20187;-76
2022/12/11 17:05:47;;;;;;;24.40;13.63;;;;;;;-145.68;100.00;63218.00;10398846;28;20652;-76
2022/12/11 17:10:47;;;;;;;22.27;12.20;;;;;;;-145.68;100.00;63218.00;10366707;28;20238;-77
2022/12/11 17:15:47;;;;;;;23.03;12.53;;;;;;;-145.68;100.00;63218.00;10367781;28;20203;-76
2022/12/11 17:20:48;;;;;;;21.03;11.60;;;;;;;-145.68;100.00;63218.00;10350472;28;20195;-76
2022/12/11 17:25:48;;;;;;;22.50;12.10;;;;;;;-145.68;100.00;63218.00;10383519;28;20244;-76
2022/12/11 17:30:51;;;;;;;20.10;11.03;;;;;;;-145.68;100.00;63218.00;10410820;28;20963;-76
2022/12/11 17:35:51;;;;;;;22.90;12.37;;;;;;;-145.68;100.00;63218.00;10446962;28;20199;-76
2022/12/11 17:40:51;;;;;;;23.77;12.43;;;;;;;-145.68;100.00;63218.00;10425756;28;20216;-75
2022/12/11 17:45:52;;;;;;;22.47;11.93;;;;;;;-145.68;100.00;63218.00;10444102;28;20195;-76
2022/12/11 17:50:53;;;;;;;22.13;12.77;;;;;;;-145.68;100.00;63218.00;10452397;28;20215;-75
2022/12/11 17:55:53;;;;;;;21.47;11.53;;;;;;;-145.68;100.00;63218.00;10453745;28;20727;-76
2022/12/11 18:00:55;;;;;;;22.43;12.40;;;;;;;-145.68;100.00;63218.00;10452363;28;20270;-75
2022/12/11 18:05:56;;;;;;;21.50;12.57;;;;;;;-145.68;100.00;63218.00;10454991;28;20203;-75
2022/12/11 18:11:05;;;;;;;18.00;11.00;;;;;;;-145.68;100.00;63218.00;10465991;28;20218;-75
2022/12/11 18:16:11;;;;;;;19.77;11.10;;;;;;;-145.68;100.00;63218.00;10497045;28;20587;-75
2022/12/11 18:21:14;;;;;;;21.23;11.10;;;;;;;-145.68;100.00;63218.00;10497419;28;20285;-77
2022/12/11 18:26:16;;;;;;;20.37;10.37;;;;;;;-145.68;100.00;63218.00;10491520;28;20240;-76
2022/12/11 18:31:17;;;;;;;22.97;11.40;;;;;;;-145.68;100.00;63218.00;10419554;28;20223;-76
2022/12/11 18:36:18;;;;;;;22.27;11.30;;;;;;;-145.68;100.00;63218.00;10432515;28;20924;-76
2022/12/11 18:41:19;;;;;;;25.53;12.43;;;;;;;-145.68;100.00;63218.00;10440316;28;20554;-76
2022/12/11 18:46:20;;;;;;;35.40;16.13;;;;;;;-145.68;100.00;63218.00;10454205;28;20190;-76
2022/12/11 18:51:23;;;;;;;23.80;13.17;;;;;;;-145.68;100.00;63218.00;10454137;28;20385;-76
2022/12/11 18:56:24;;;;;;;25.03;13.47;;;;;;;-145.68;100.00;63218.00;10453796;28;20193;-76
2022/12/11 19:01:27;;;;;;;23.67;12.40;;;;;;;-145.68;100.00;63218.00;10453680;28;20660;-76
2022/12/11 19:06:29;;;;;;;25.67;12.63;;;;;;;-145.68;100.00;63218.00;10453840;28;20215;-76
2022/12/11 19:11:30;;;;;;;22.73;12.87;;;;;;;-145.68;100.00;63218.00;10453384;28;20218;-76
2022/12/11 19:16:35;;;;;;;25.30;12.17;;;;;;;-145.68;100.00;63218.00;10453249;28;20605;-76
2022/12/11 19:21:37;;;;;;;26.07;13.23;;;;;;;-145.68;100.00;63218.00;10452919;28;20199;-76
2022/12/11 19:26:37;;;;;;;24.20;13.40;;;;;;;-145.68;100.00;63218.00;10452240;28;20230;-76
2022/12/11 19:31:38;;;;;;;26.53;13.70;;;;;;;-145.68;100.00;63218.00;10452675;28;20218;-76
2022/12/11 19:36:38;;;;;;;27.43;14.37;;;;;;;-145.68;100.00;63218.00;10452224;28;20580;-76
2022/12/11 19:41:39;;;;;;;27.80;15.10;;;;;;;-145.68;100.00;63218.00;10452295;28;20214;-76
2022/12/11 19:46:39;;;;;;;28.20;14.20;;;;;;;-145.68;100.00;63218.00;10451852;28;20195;-76
2022/12/11 19:51:41;;;;;;;32.07;15.07;;;;;;;-145.68;100.00;63218.00;10437869;28;20934;-76
2022/12/11 19:56:41;;;;;;;31.87;15.03;;;;;;;-145.68;100.00;63218.00;10433288;28;20214;-76
2022/12/11 20:01:43;;;;;;;32.57;15.83;;;;;;;-145.68;100.00;63218.00;10427490;28;20275;-76
2022/12/11 20:06:45;;;;;;;35.00;16.03;;;;;;;-145.68;100.00;63218.00;10429422;28;20702;-76
2022/12/11 20:11:46;;;;;;;28.33;14.23;;;;;;;-145.68;100.00;63218.00;10412215;28;20638;-76
2022/12/11 20:16:47;;;;;;;27.83;14.33;;;;;;;-145.68;100.00;63218.00;10394357;28;20242;-76
2022/12/11 20:21:47;;;;;;;27.73;15.00;;;;;;;-145.68;100.00;63218.00;10423064;28;20233;-76
2022/12/11 20:26:48;;;;;;;27.17;14.67;;;;;;;-145.68;100.00;63218.00;10423354;28;20231;-76
2022/12/11 20:31:49;;;;;;;31.77;14.10;;;;;;;-145.68;100.00;63218.00;10409307;28;20220;-76
2022/12/11 20:36:51;;;;;;;25.57;12.80;;;;;;;-145.68;100.00;63218.00;10403897;28;20225;-76
2022/12/11 20:41:51;;;;;;;27.53;14.03;;;;;;;-145.68;100.00;63218.00;10428076;28;20207;-76
2022/12/11 20:46:51;;;;;;;26.67;13.90;;;;;;;-145.68;100.00;63218.00;10414986;28;20192;-76
2022/12/11 20:51:52;;;;;;;29.87;15.23;;;;;;;-145.68;100.00;63218.00;10408449;28;20687;-76
2022/12/11 20:56:53;;;;;;;26.40;14.07;;;;;;;-145.68;100.00;63218.00;10428841;28;20235;-76
2022/12/11 21:01:53;;;;;;;25.07;13.90;;;;;;;-145.68;100.00;63218.00;10412976;28;20192;-76
2022/12/11 21:06:54;;;;;;;29.00;14.60;;;;;;;-145.68;100.00;63218.00;10408234;28;20194;-76
2022/12/11 21:11:56;;;;;;;31.90;14.23;;;;;;;-145.68;100.00;63218.00;10450638;28;20578;-76
2022/12/11 21:16:58;;;;;;;25.77;13.63;;;;;;;-145.68;100.00;63218.00;10432141;28;20186;-76
2022/12/11 21:21:58;;;;;;;26.83;13.97;;;;;;;-145.68;100.00;63218.00;10449746;28;20210;-76
2022/12/11 21:26:58;;;;;;;30.70;14.60;;;;;;;-145.68;100.00;63218.00;10455496;28;20227;-76
2022/12/11 21:31:59;;;;;;;28.10;14.30;;;;;;;-145.68;100.00;63218.00;10440409;28;20298;-76
2022/12/11 21:37:00;;;;;;;31.50;14.17;;;;;;;-145.68;100.00;63218.00;10440223;28;20215;-76
2022/12/11 21:42:00;;;;;;;26.87;13.63;;;;;;;-145.68;100.00;63218.00;10458125;28;20194;-76
2022/12/11 21:47:00;;;;;;;33.17;14.60;;;;;;;-145.68;100.00;63218.00;10458139;28;20188;-76
2022/12/11 21:52:01;;;;;;;23.53;13.10;;;;;;;-145.68;100.00;63218.00;10457352;28;20272;-76
2022/12/11 21:57:02;;;;;;;26.90;14.30;;;;;;;-145.68;100.00;63218.00;10439709;28;20195;-76
2022/12/11 22:02:03;;;;;;;24.27;12.63;;;;;;;-145.68;100.00;63218.00;10457073;28;20191;-77
2022/12/11 22:07:03;;;;;;;25.93;13.80;;;;;;;-145.68;100.00;63218.00;10455176;28;20203;-76
2022/12/11 22:12:05;;;;;;;25.20;12.27;;;;;;;-145.68;100.00;63218.00;10458289;28;20219;-76
2022/12/11 22:17:05;;;;;;;24.17;13.03;;;;;;;-145.68;100.00;63218.00;10457727;28;20187;-77
2022/12/11 22:22:06;;;;;;;28.43;13.27;;;;;;;-145.68;100.00;63218.00;10458377;28;20249;-78
2022/12/11 22:27:06;;;;;;;25.60;12.57;;;;;;;-145.68;100.00;63218.00;10458099;28;20266;-76
2022/12/11 22:32:06;;;;;;;26.70;15.30;;;;;;;-145.68;100.00;63218.00;10458671;28;20237;-77
2022/12/11 22:37:07;;;;;;;27.93;14.67;;;;;;;-145.68;100.00;63218.00;10460918;28;20214;-76